Aérodrome :
LOGIN :

S'inscrire | Disclaimer

   EN    FR    IT 

 










Légende :    VFR   VFR Marginal   IFR   IFR Intensif   IFR Très Intensif
Visi : 
Plafond : 
>= 8 km
>= 3000ft
5 à 8 km
1000 à 3000 ft
1500m à 5 km
500 à 1000 ft
800 à 1500m
200 à 500 ft
< 800m
< 200 ft
Symboles :   Orages  Brouillard  Fortes neiges  Fortes précipitations  Vent > 20 kt
SIGMETs :   Divers  Orages  Givrage  Turbulence  Onde Orograph.  Cendres Volcan.







- Altitude de l'aérodrome : 19 ft
- Code IATA : LCY
- Voir les cartes d'approche


EGLC - London City

DERNIER METAR :
  • 230220Z AUTO 24010KT 9999 NCD 08/05 Q1034

METARs EXPIRÉS :
  • 230150Z AUTO 24009KT 9999 NCD 08/05 Q1034
  • 230120Z AUTO 25009KT 9999 NCD 08/05 Q1034
  • 230050Z AUTO 24008KT 9999 NCD 08/05 Q1035
  • 230020Z AUTO 23007KT 9999 NCD 08/05 Q1035
  • 222350Z AUTO 23008KT 9999 NCD 09/05 Q1036

TAF TAF EGLC
Valide du 23 à 03h jusqu'au 23 à 12h UTC


230155Z 2303/2312 26007KT CAVOK
PROB30
TEMPO 2305/2310 BKN008
ATIS : +44 20 7646 0224
Pas de NOTAMs connus pour ce terrain.
4 SIGMETs publiés pour la FIR London (EGTT) :
 
Turbulence forte
EGTT SIGMET 05 VALID 222200/230200 EGRR
EGTT LONDON FIR SEV TURB FCST WI N5406 W00156 - N5500 W00403 - N5500 E00500 - N5450 E00451 - N5406 W00156 SFC/FL060 STNR NC=
Onde orographique forte
EGTT SIGMET 04 VALID 222200/230200 EGRR
EGTT LONDON FIR SEV MTW FCST WI N5500 W00530 - N5500 E00101 - N5302 E00134 - N5319 W00150 - N5430 W00530 - N5500 W00530 FL030/250 STNR NC=
Onde orographique forte
EGTT SIGMET 02 VALID 230200/230600 EGRR
EGTT LONDON FIR SEV MTW FCST WI N5500 W00530 - N5500 E00101 - N5302 E00134 - N5319 W00150 - N5430 W00530 - N5500 W00530 FL030/250 STNR NC=
Turbulence forte
EGTT SIGMET 01 VALID 230200/230600 EGRR
EGTT LONDON FIR SEV TURB FCST WI N5406 W00156 - N5500 W00403 - N5500 E00500 - N5450 E00451 - N5406 W00156 SFC/FL060 MOV SE 05KT NC=



MET'MAP, la Météo Aéronautique d'un coup d'oeil ! - Copyright ORBIFLY Décembre 2007 - Disclaimer

ORBIFLY MET'MAP TEAM :

Programmation & Développement : Alexandra Zaïnal
Conception & Développement : Baudouin d'Aumeries
Co-Programmation & Développement : Marc-Olivier Méhu
Soutien technique & logistique : Manuel Goepfert

Contact : metmap@orbifly.com




SOURCES & CREDITS :

   NOAA